Time;durP1;ratioP1;P1;durP2;ratioP2;P2;SDS_P1;SDS_P2;PMS_P1;PMS_P2;Temp;Humidity;BMP_temperature;BMP_pressure;BME280_temperature;BME280_humidity;BME280_pressure;Samples;Min_cycle;Max_cycle;Signal;HPM_P1;HPM_P2
2021/01/05 00:01:55;;;;;;;17.67;10.03;;;;;;;2.90;69.54;101115.86;1744160;82;21448;-62
2021/01/05 00:04:22;;;;;;;15.58;9.23;;;;;;;2.85;69.67;101119.08;1749223;79;22003;-63
2021/01/05 00:06:49;;;;;;;15.93;9.93;;;;;;;2.81;69.80;101124.84;1802873;77;21187;-63
2021/01/05 00:09:18;;;;;;;20.05;9.13;;;;;;;2.78;69.96;101127.55;1800175;79;21179;-64
2021/01/05 00:12:04;;;;;;;15.00;7.58;;;;;;;2.74;70.05;101130.71;1810102;77;21156;-65
2021/01/05 00:14:34;;;;;;;12.98;7.60;;;;;;;2.71;69.82;101128.68;1748008;81;21251;-66
2021/01/05 00:17:04;;;;;;;15.65;7.55;;;;;;;2.76;69.47;101122.41;1756287;79;21160;-63
2021/01/05 00:19:32;;;;;;;19.65;10.10;;;;;;;2.76;69.33;101131.50;1815087;77;21116;-63
2021/01/05 00:21:59;;;;;;;16.35;8.05;;;;;;;2.72;69.52;101126.03;1801213;79;21784;-63
2021/01/05 00:24:29;;;;;;;19.62;11.28;;;;;;;2.72;69.70;101127.33;1815302;77;21160;-64
2021/01/05 00:26:57;;;;;;;28.60;13.83;;;;;;;2.71;69.86;101127.38;1803032;77;21658;-63
2021/01/05 00:29:24;;;;;;;23.50;12.20;;;;;;;2.67;70.01;101121.41;1797681;77;21976;-63
2021/01/05 00:32:12;;;;;;;29.02;13.95;;;;;;;2.67;70.03;101122.72;1813415;77;21203;-62
2021/01/05 00:34:40;;;;;;;23.15;14.58;;;;;;;2.67;70.08;101117.98;1794114;77;21127;-62
2021/01/05 00:37:08;;;;;;;28.65;15.03;;;;;;;2.67;70.09;101120.11;1805123;79;21167;-62
2021/01/05 00:39:36;;;;;;;24.05;12.53;;;;;;;2.65;70.13;101119.33;1792901;77;21371;-62
2021/01/05 00:42:05;;;;;;;28.60;13.93;;;;;;;2.67;70.01;101120.11;1797909;77;21221;-62
2021/01/05 00:44:33;;;;;;;25.10;13.70;;;;;;;2.75;69.81;101123.75;1788602;79;21515;-62
2021/01/05 00:47:00;;;;;;;23.85;13.00;;;;;;;2.78;69.74;101120.59;1799902;79;21163;-62
2021/01/05 00:49:28;;;;;;;25.08;13.35;;;;;;;2.83;69.76;101127.39;1792648;79;21187;-62
2021/01/05 00:51:58;;;;;;;20.20;12.10;;;;;;;2.81;69.75;101128.75;1794199;79;21655;-63
2021/01/05 00:54:28;;;;;;;31.75;15.38;;;;;;;2.78;69.70;101121.89;1787570;79;21175;-62
2021/01/05 00:57:08;;;;;;;25.35;13.93;;;;;;;2.78;69.71;101124.95;1800114;79;21097;-62
2021/01/05 00:59:37;;;;;;;24.02;13.38;;;;;;;2.78;69.58;101130.15;1802521;79;21144;-62
2021/01/05 01:02:05;;;;;;;29.90;13.85;;;;;;;2.75;69.58;101123.30;1801598;79;21108;-62
2021/01/05 01:04:33;;;;;;;29.07;14.15;;;;;;;2.73;69.58;101116.47;1805917;79;21326;-63
2021/01/05 01:07:02;;;;;;;25.50;14.03;;;;;;;2.69;69.56;101123.53;1803950;77;21194;-62
2021/01/05 01:09:31;;;;;;;27.70;13.85;;;;;;;2.64;69.49;101112.88;1787504;79;21159;-61
2021/01/05 01:12:03;;;;;;;23.35;12.40;;;;;;;2.61;69.49;101117.75;1799282;79;21151;-61
2021/01/05 01:14:33;;;;;;;24.47;12.00;;;;;;;2.60;69.45;101114.28;1813736;79;21152;-62
2021/01/05 01:17:00;;;;;;;26.20;12.15;;;;;;;2.69;69.20;101107.94;1796510;77;21359;-63
2021/01/05 01:19:30;;;;;;;22.13;12.00;;;;;;;2.76;68.99;101111.17;1795248;79;21203;-63
2021/01/05 01:21:58;;;;;;;20.32;11.45;;;;;;;2.78;68.96;101109.36;1803971;77;21179;-62
2021/01/05 01:24:26;;;;;;;25.85;13.48;;;;;;;2.74;69.04;101104.72;1793370;79;21124;-63
2021/01/05 01:26:54;;;;;;;28.10;12.47;;;;;;;2.72;69.03;101106.97;1795846;77;21422;-63
2021/01/05 01:29:24;;;;;;;27.40;12.80;;;;;;;2.64;69.08;101106.39;1803643;77;21904;-63
2021/01/05 01:31:54;;;;;;;27.42;13.25;;;;;;;2.56;69.23;101096.28;1793445;77;21164;-63
2021/01/05 01:34:25;;;;;;;22.82;12.88;;;;;;;2.52;69.30;101105.06;1793255;79;21187;-63
2021/01/05 01:36:59;;;;;;;26.93;13.30;;;;;;;2.44;69.43;101096.27;1796996;77;21088;-62
2021/01/05 01:39:29;;;;;;;26.05;13.55;;;;;;;2.40;69.43;101093.36;1790254;77;21168;-62
2021/01/05 01:41:57;;;;;;;21.17;11.50;;;;;;;2.44;69.33;101100.59;1796538;77;21196;-62
2021/01/05 01:44:29;;;;;;;19.52;10.63;;;;;;;2.51;69.26;101107.29;1808757;77;21112;-63
2021/01/05 01:47:01;;;;;;;21.20;12.80;;;;;;;2.56;69.26;101102.31;1795468;77;21168;-62
2021/01/05 01:49:28;;;;;;;25.15;12.28;;;;;;;2.63;69.25;101105.55;1760652;80;22233;-63
2021/01/05 01:51:56;;;;;;;20.68;12.43;;;;;;;2.62;69.28;101099.94;1754069;79;21198;-64
2021/01/05 01:55:12;;;;;;;26.33;13.53;;;;;;;2.60;69.30;101097.39;1731170;81;21213;-62
2021/01/05 01:58:14;;;;;;;16.37;9.78;;;;;;;2.59;69.35;101107.41;1792900;78;22244;-63
2021/01/05 02:00:53;;;;;;;19.65;10.90;;;;;;;2.48;69.31;101102.19;1735593;81;21772;-62
2021/01/05 02:03:56;;;;;;;21.25;11.45;;;;;;;2.34;69.33;101103.52;1763458;79;21420;-62
2021/01/05 02:06:49;;;;;;;22.48;11.57;;;;;;;2.23;69.58;101097.38;1727103;81;21173;-62
2021/01/05 02:09:45;;;;;;;21.10;11.38;;;;;;;2.19;69.67;101098.39;1740997;81;21169;-63
2021/01/05 02:12:54;;;;;;;16.87;10.78;;;;;;;2.17;69.75;101095.00;1687035;81;21180;-62
2021/01/05 02:15:54;;;;;;;20.97;11.57;;;;;;;2.12;69.78;101088.25;1728145;81;21090;-59
2021/01/05 02:18:39;;;;;;;20.77;10.58;;;;;;;2.15;69.81;101090.32;1725174;81;21356;-62
2021/01/05 02:21:23;;;;;;;19.92;9.33;;;;;;;2.23;69.75;101084.39;1735760;81;21121;-63
2021/01/05 02:24:20;;;;;;;22.00;11.08;;;;;;;2.24;69.70;101085.26;1740014;80;21144;-63
2021/01/05 02:27:07;;;;;;;23.83;11.88;;;;;;;2.20;69.81;101082.34;1750167;81;21269;-62
2021/01/05 02:29:49;;;;;;;21.00;11.40;;;;;;;2.10;70.16;101071.88;1758905;79;23374;-61
2021/01/05 02:32:54;;;;;;;18.50;11.03;;;;;;;2.03;70.31;101066.92;1733392;82;21172;-61
2021/01/05 02:35:45;;;;;;;24.63;12.03;;;;;;;2.04;70.40;101070.34;1722059;82;21247;-63
2021/01/05 02:49:46;;;;;;;23.90;12.28;;;;;;;2.00;70.92;101051.87;1896540;75;22651;-62
2021/01/05 02:53:02;;;;;;;22.67;12.10;;;;;;;1.89;71.07;101040.56;1877382;76;22621;-62
2021/01/05 02:56:20;;;;;;;21.27;11.22;;;;;;;1.90;70.96;101035.78;1842272;77;21139;-61
2021/01/05 02:59:26;;;;;;;18.42;11.20;;;;;;;1.99;70.73;101041.10;1838621;77;22014;-63
2021/01/05 03:02:36;;;;;;;18.77;10.35;;;;;;;1.99;70.70;101033.31;1857725;77;21025;-62
2021/01/05 03:05:22;;;;;;;21.07;11.97;;;;;;;1.95;70.76;101031.28;1837618;77;21132;-62
2021/01/05 03:08:08;;;;;;;21.50;12.55;;;;;;;1.93;70.83;101014.89;1830588;77;21586;-63
2021/01/05 03:10:58;;;;;;;23.62;12.15;;;;;;;1.89;70.96;101017.20;1852702;77;21076;-62
2021/01/05 03:14:11;;;;;;;21.02;12.73;;;;;;;1.89;71.08;101013.77;1855067;77;21252;-63
2021/01/05 03:17:05;;;;;;;21.37;13.65;;;;;;;1.90;71.06;101012.42;1806858;77;22221;-62
2021/01/05 03:20:19;;;;;;;20.92;12.35;;;;;;;1.90;71.17;101004.63;1846072;77;21847;-61
2021/01/05 03:23:08;;;;;;;21.35;13.05;;;;;;;1.96;71.21;101001.81;1858960;77;21603;-62
2021/01/05 03:25:53;;;;;;;22.13;12.45;;;;;;;2.14;70.99;100999.49;1858989;77;21128;-61
2021/01/05 03:28:40;;;;;;;;;;;;;;;2.25;70.85;100997.80;1851746;77;21176;-62
2021/01/05 03:31:33;;;;;;;16.75;9.73;;;;;;;2.27;70.62;100998.59;1855869;77;20308;-62
2021/01/05 03:34:20;;;;;;;21.85;12.25;;;;;;;2.20;70.79;101009.64;1851310;77;21135;-63
2021/01/05 03:37:06;;;;;;;21.73;13.18;;;;;;;2.19;70.81;101004.08;1849120;77;21124;-63
2021/01/05 03:39:53;;;;;;;21.07;11.30;;;;;;;2.20;70.89;101013.54;1812237;78;21474;-61
2021/01/05 03:42:39;;;;;;;23.60;13.80;;;;;;;2.23;70.89;101021.23;1818808;78;21431;-63
2021/01/05 03:45:28;;;;;;;25.68;13.00;;;;;;;2.18;70.89;101027.88;1813575;78;21108;-62
2021/01/05 03:48:14;;;;;;;19.25;11.53;;;;;;;2.15;70.98;101027.13;1782606;80;21145;-61
2021/01/05 04:12:32;;;;;;;20.00;11.25;;;;;;;2.21;71.28;100991.42;1807470;77;22817;-63
2021/01/05 04:14:59;;;;;;;19.10;11.28;;;;;;;2.18;71.35;100995.88;1782239;79;21180;-63
2021/01/05 04:17:28;;;;;;;19.23;10.98;;;;;;;2.18;71.38;100991.98;1770276;80;21340;-64
2021/01/05 04:19:55;;;;;;;20.95;10.70;;;;;;;2.20;71.29;101001.42;1772136;80;21259;-60
2021/01/05 04:33:11;;;;;;;20.92;9.85;;;;;;;2.17;71.10;100994.17;1867204;74;22642;-61
2021/01/05 04:35:38;;;;;;;19.12;9.33;;;;;;;2.19;71.10;100986.73;1831215;77;21186;-60
2021/01/05 04:39:20;;;;;;;15.25;8.15;;;;;;;2.30;70.94;100981.14;1822426;76;22523;-59
2021/01/05 04:42:05;;;;;;;13.20;7.50;;;;;;;2.25;70.91;100985.66;1792397;78;21120;-59
2021/01/05 04:45:03;;;;;;;15.03;7.50;;;;;;;2.22;71.00;100987.93;1809868;79;21414;-61
2021/01/05 04:47:42;;;;;;;18.87;9.20;;;;;;;2.20;71.11;100987.14;1796865;77;21148;-61
2021/01/05 04:50:13;;;;;;;19.48;9.25;;;;;;;2.18;71.13;100993.28;1802678;79;21159;-60
2021/01/05 04:52:59;;;;;;;14.65;8.70;;;;;;;2.18;71.17;100986.33;1828383;76;22809;-60
2021/01/05 04:55:51;;;;;;;13.78;8.28;;;;;;;2.14;71.23;100992.55;1803211;79;21124;-61
2021/01/05 04:58:27;;;;;;;15.78;9.55;;;;;;;2.26;71.13;100986.07;1803007;79;21352;-59
2021/01/05 05:00:55;;;;;;;13.45;7.62;;;;;;;2.36;71.02;100987.42;1801128;79;21204;-60
2021/01/05 05:03:49;;;;;;;12.65;7.42;;;;;;;2.40;70.85;100991.62;1810150;77;21745;-60
2021/01/05 05:06:49;;;;;;;16.12;8.80;;;;;;;2.35;70.94;100987.02;1808616;77;21429;-61
2021/01/05 05:12:39;;;;;;;16.90;9.05;;;;;;;2.28;71.11;100986.85;1721013;81;21384;-60
2021/01/05 05:15:12;;;;;;;17.02;9.48;;;;;;;2.20;71.33;100975.89;1712822;81;21180;-60
2021/01/05 05:17:58;;;;;;;13.38;7.00;;;;;;;2.18;71.41;100975.10;1730817;81;21141;-60
2021/01/05 05:21:11;;;;;;;13.78;7.87;;;;;;;2.20;71.35;100975.89;1694264;83;21140;-59
2021/01/05 05:24:26;;;;;;;13.62;8.08;;;;;;;2.30;71.10;100973.35;1698646;83;21188;-60
2021/01/05 05:27:23;;;;;;;16.73;7.47;;;;;;;2.38;70.92;100972.63;1721892;81;21960;-60
2021/01/05 05:30:10;;;;;;;17.37;8.20;;;;;;;2.40;70.86;100972.14;1699897;82;21495;-60
2021/01/05 05:32:54;;;;;;;11.85;7.25;;;;;;;2.40;70.99;100970.84;1696715;82;21146;-59
2021/01/05 05:35:34;;;;;;;14.45;7.67;;;;;;;2.40;70.92;100968.68;1707645;82;21779;-59
2021/01/05 05:38:44;;;;;;;15.28;8.75;;;;;;;2.37;70.94;100960.56;1718522;81;21187;-62
2021/01/05 05:41:53;;;;;;;14.68;7.80;;;;;;;2.33;70.97;100964.62;1721582;81;22765;-63
2021/01/05 05:44:48;;;;;;;11.05;7.42;;;;;;;2.21;70.88;100963.31;1720841;81;21229;-60
2021/01/05 05:47:48;;;;;;;13.05;7.85;;;;;;;2.17;71.02;100965.61;1712689;81;22332;-62
2021/01/05 05:50:23;;;;;;;16.15;8.80;;;;;;;2.23;70.91;100973.19;1720263;81;21190;-61
2021/01/05 05:53:11;;;;;;;14.15;7.78;;;;;;;2.24;71.02;100969.70;1716538;81;21187;-60
2021/01/05 05:56:03;;;;;;;19.55;8.98;;;;;;;2.24;71.15;100967.11;1861751;74;22658;-60
2021/01/05 05:58:34;;;;;;;13.83;8.18;;;;;;;2.18;71.33;100970.75;1852202;75;21191;-59
2021/01/05 06:01:05;;;;;;;13.62;8.00;;;;;;;2.17;71.37;100970.38;1865593;74;23532;-59
2021/01/05 06:03:32;;;;;;;14.63;7.75;;;;;;;2.14;71.35;100968.34;1864932;75;21217;-60
2021/01/05 06:06:00;;;;;;;19.48;8.13;;;;;;;2.11;71.31;100968.44;1870778;74;21199;-60
2021/01/05 06:08:29;;;;;;;16.48;8.00;;;;;;;2.11;71.34;100968.44;1874601;74;22003;-60
2021/01/05 06:10:58;;;;;;;20.88;8.75;;;;;;;2.10;71.45;100969.33;1799445;78;21196;-60
2021/01/05 06:13:26;;;;;;;17.40;7.62;;;;;;;2.18;71.39;100971.20;1834554;77;21524;-60
2021/01/05 06:15:53;;;;;;;16.90;9.25;;;;;;;2.31;71.15;100964.67;1828464;77;21145;-61
2021/01/05 06:18:21;;;;;;;15.65;8.63;;;;;;;2.41;70.96;100951.74;1832362;77;21193;-59
2021/01/05 06:20:50;;;;;;;15.45;8.53;;;;;;;2.49;70.89;100954.07;1831801;75;21182;-60
2021/01/05 06:23:18;;;;;;;17.62;8.35;;;;;;;2.53;70.77;100953.03;1829789;77;21155;-58
2021/01/05 06:25:47;;;;;;;14.87;8.00;;;;;;;2.53;70.82;100955.64;1835831;77;22475;-62
2021/01/05 06:28:14;;;;;;;18.52;9.40;;;;;;;2.51;70.68;100952.72;1830402;75;21995;-60
2021/01/05 06:30:41;;;;;;;14.70;8.95;;;;;;;2.43;70.77;100958.64;1828801;75;21184;-59
2021/01/05 06:33:09;;;;;;;18.12;8.58;;;;;;;2.38;70.82;100960.94;1831961;77;21169;-59
2021/01/05 06:35:37;;;;;;;13.35;7.80;;;;;;;2.37;70.93;100963.59;1834018;77;21541;-62
2021/01/05 06:38:05;;;;;;;18.27;9.10;;;;;;;2.42;70.89;100959.08;1829047;77;22693;-60
2021/01/05 06:40:32;;;;;;;15.30;8.03;;;;;;;2.52;70.64;100953.96;1830138;77;21991;-61
2021/01/05 06:43:00;;;;;;;14.43;8.00;;;;;;;2.63;70.26;100955.30;1830087;77;21259;-61
2021/01/05 06:45:31;;;;;;;15.68;8.10;;;;;;;2.60;70.12;100951.89;1830428;75;21485;-61
2021/01/05 06:47:59;;;;;;;18.15;9.50;;;;;;;2.57;70.21;100955.06;1835842;75;21110;-61
2021/01/05 06:50:29;;;;;;;17.73;8.25;;;;;;;2.51;70.22;100963.95;1805664;77;22167;-62
2021/01/05 06:52:56;;;;;;;15.32;8.63;;;;;;;2.45;70.29;100966.76;1842738;77;21191;-67
2021/01/05 06:55:24;;;;;;;16.75;9.28;;;;;;;2.43;70.41;100952.16;1819869;77;21647;-63
2021/01/05 06:57:51;;;;;;;19.90;8.60;;;;;;;2.37;70.37;100960.56;1838445;75;21175;-62
2021/01/05 07:00:23;;;;;;;16.17;9.73;;;;;;;2.30;70.43;100966.86;1840833;76;21469;-61
2021/01/05 07:02:50;;;;;;;16.37;8.53;;;;;;;2.33;70.48;100973.25;1842074;75;22825;-63
2021/01/05 07:05:20;;;;;;;20.85;8.40;;;;;;;2.43;70.33;100970.33;1843594;76;21539;-64
2021/01/05 07:07:47;;;;;;;14.65;9.48;;;;;;;2.52;70.18;100975.17;1841753;75;21676;-61
2021/01/05 07:10:16;;;;;;;15.05;8.75;;;;;;;2.54;70.07;100968.16;1840309;75;21129;-56
2021/01/05 07:12:45;;;;;;;17.95;9.23;;;;;;;2.54;70.17;100970.77;1838840;75;21147;-56
2021/01/05 07:15:15;;;;;;;18.67;10.80;;;;;;;2.55;70.33;100966.81;1828620;77;23648;-57
2021/01/05 07:17:43;;;;;;;19.75;10.78;;;;;;;2.57;70.27;100966.75;1838935;77;21202;-56
2021/01/05 07:20:12;;;;;;;17.90;10.55;;;;;;;2.56;70.20;100963.78;1837164;75;21679;-56
2021/01/05 07:22:39;;;;;;;17.67;10.60;;;;;;;2.51;70.21;100961.34;1814253;77;21247;-55
2021/01/05 07:25:11;;;;;;;15.78;10.25;;;;;;;2.46;70.25;100963.73;1840250;77;21163;-55
2021/01/05 07:27:39;;;;;;;20.50;11.95;;;;;;;2.44;70.31;100954.70;1840119;77;21243;-55
2021/01/05 07:30:07;;;;;;;20.02;11.63;;;;;;;2.53;70.23;100964.73;1837358;76;22212;-56
2021/01/05 07:32:35;;;;;;;19.82;11.25;;;;;;;2.65;70.15;100970.38;1841252;75;21962;-56
2021/01/05 07:35:04;;;;;;;20.30;11.57;;;;;;;2.72;70.06;100966.63;1839996;77;21213;-56
2021/01/05 07:37:36;;;;;;;19.60;12.07;;;;;;;2.77;70.02;100972.07;1856085;75;21141;-55
2021/01/05 07:40:06;;;;;;;19.12;11.55;;;;;;;2.79;69.91;100975.88;1843803;77;21812;-56
2021/01/05 07:42:34;;;;;;;22.85;13.08;;;;;;;2.78;69.82;100970.31;1841931;75;21745;-56
2021/01/05 07:45:06;;;;;;;24.25;13.78;;;;;;;2.73;69.87;100959.24;1842862;75;21156;-56
2021/01/05 07:47:35;;;;;;;22.75;14.38;;;;;;;2.69;69.99;100965.02;1848322;77;21113;-56
2021/01/05 07:50:07;;;;;;;21.15;13.13;;;;;;;2.67;69.99;100969.40;1815602;78;21121;-56
2021/01/05 07:52:40;;;;;;;24.77;13.83;;;;;;;2.65;69.99;100969.91;1839962;76;21647;-55
2021/01/05 07:55:14;;;;;;;19.25;11.18;;;;;;;2.71;69.87;100983.98;1798275;77;21173;-55
2021/01/05 07:57:42;;;;;;;20.32;11.80;;;;;;;2.78;69.66;100978.11;1779132;79;21574;-55
2021/01/05 08:00:13;;;;;;;24.77;11.30;;;;;;;2.85;69.55;100970.92;1781463;79;21197;-55
2021/01/05 08:02:41;;;;;;;24.07;11.30;;;;;;;2.89;69.46;100972.48;1776200;79;21194;-56
2021/01/05 08:05:13;;;;;;;26.02;12.43;;;;;;;2.89;69.54;100968.16;1782167;79;21368;-55
2021/01/05 08:07:41;;;;;;;22.82;12.30;;;;;;;2.91;69.52;100968.09;1783262;79;21234;-55
2021/01/05 08:10:10;;;;;;;20.90;11.35;;;;;;;2.87;69.53;100950.91;1781873;79;21163;-55
2021/01/05 08:12:38;;;;;;;18.05;10.65;;;;;;;2.83;69.48;100954.08;1804648;77;21151;-55
2021/01/05 08:15:07;;;;;;;18.15;10.05;;;;;;;2.75;69.53;100951.77;1827740;77;21457;-56
2021/01/05 08:17:34;;;;;;;25.05;12.20;;;;;;;2.73;69.61;100943.66;1824773;77;21323;-56
2021/01/05 08:20:03;;;;;;;19.42;11.08;;;;;;;2.67;69.69;100938.22;1829831;77;21459;-55
2021/01/05 08:22:30;;;;;;;19.57;11.38;;;;;;;2.70;69.66;100938.11;1824345;77;21157;-54
2021/01/05 08:24:57;;;;;;;16.05;9.58;;;;;;;2.82;69.52;100933.34;1817985;77;21160;-55
2021/01/05 08:27:25;;;;;;;16.90;9.75;;;;;;;2.91;69.37;100933.84;1832783;77;21188;-55
2021/01/05 08:29:53;;;;;;;19.23;10.70;;;;;;;2.98;69.24;100927.48;1835480;77;22395;-56
2021/01/05 08:32:23;;;;;;;17.98;9.78;;;;;;;3.00;69.24;100928.72;1830020;77;21912;-56
2021/01/05 08:34:50;;;;;;;17.85;9.73;;;;;;;3.02;69.19;100915.67;1830356;77;21579;-55
2021/01/05 08:37:17;;;;;;;16.65;10.35;;;;;;;3.03;69.06;100914.77;1824306;77;21171;-57
2021/01/05 08:39:45;;;;;;;17.82;10.00;;;;;;;3.00;68.90;100907.09;1826894;77;21211;-55
2021/01/05 08:42:13;;;;;;;16.70;8.63;;;;;;;2.94;69.06;100904.27;1824867;77;22434;-56
2021/01/05 08:44:41;;;;;;;20.52;9.43;;;;;;;2.91;69.14;100890.11;1820978;77;21787;-56
2021/01/05 08:47:08;;;;;;;15.53;9.75;;;;;;;2.88;69.29;100892.36;1776618;77;21195;-55
2021/01/05 08:49:36;;;;;;;14.75;8.28;;;;;;;2.92;69.32;100896.98;1827362;77;21120;-56
2021/01/05 08:52:04;;;;;;;17.48;9.10;;;;;;;3.05;69.02;100902.55;1820981;77;21203;-55
2021/01/05 08:54:31;;;;;;;18.00;9.08;;;;;;;3.10;68.68;100910.55;1822315;77;21615;-56
2021/01/05 08:57:00;;;;;;;15.72;8.63;;;;;;;3.10;68.67;100908.41;1826286;76;21207;-56
2021/01/05 08:59:27;;;;;;;13.70;8.10;;;;;;;3.07;68.80;100917.63;1825401;77;21172;-56
2021/01/05 09:01:54;;;;;;;16.17;8.90;;;;;;;3.06;68.83;100916.80;1829586;77;21910;-56
2021/01/05 09:04:22;;;;;;;15.13;7.83;;;;;;;3.02;68.87;100913.91;1825469;77;21182;-56
2021/01/05 09:06:49;;;;;;;14.73;8.78;;;;;;;3.00;68.91;100909.23;1822097;77;21649;-57
2021/01/05 09:09:17;;;;;;;18.12;9.18;;;;;;;2.96;69.00;100911.11;1831231;77;21184;-55
2021/01/05 09:11:52;;;;;;;14.50;8.35;;;;;;;2.95;69.09;100908.56;1834006;77;21445;-56
2021/01/05 09:14:28;;;;;;;12.15;7.75;;;;;;;2.97;69.13;100912.78;1755304;79;23234;-55
2021/01/05 09:16:58;;;;;;;11.10;7.33;;;;;;;2.95;69.03;100911.16;1734288;82;21182;-56
2021/01/05 09:19:28;;;;;;;12.55;7.15;;;;;;;3.05;68.71;100910.34;1733180;82;21136;-54
2021/01/05 09:21:56;;;;;;;12.85;6.97;;;;;;;3.15;68.40;100911.67;1738586;82;20982;-56
2021/01/05 09:24:23;;;;;;;10.78;6.25;;;;;;;3.16;68.29;100910.73;1732289;82;21160;-55
2021/01/05 09:26:55;;;;;;;14.10;7.35;;;;;;;3.13;68.41;100905.23;1737369;82;21272;-56
2021/01/05 09:29:24;;;;;;;12.13;7.75;;;;;;;3.14;68.56;100904.77;1731993;82;21165;-56
2021/01/05 09:31:53;;;;;;;13.68;8.55;;;;;;;3.12;68.57;100899.62;1733358;82;21337;-56
2021/01/05 09:34:22;;;;;;;12.90;6.53;;;;;;;3.12;68.57;100894.88;1734113;82;21623;-56
2021/01/05 09:36:51;;;;;;;12.00;6.42;;;;;;;3.11;68.69;100886.25;1735960;82;21584;-57
2021/01/05 09:39:22;;;;;;;12.80;6.37;;;;;;;3.07;68.71;100886.42;1727514;82;21195;-57
2021/01/05 09:42:02;;;;;;;14.78;7.15;;;;;;;3.00;68.83;100875.42;1744514;82;21176;-55
2021/01/05 09:44:31;;;;;;;16.23;8.20;;;;;;;3.02;69.00;100867.57;1698339;83;21286;-57
2021/01/05 09:47:01;;;;;;;16.60;7.20;;;;;;;3.14;68.83;100860.13;1695477;84;21235;-54
2021/01/05 09:49:30;;;;;;;13.20;7.33;;;;;;;3.23;68.54;100851.52;1692795;84;21183;-56
2021/01/05 09:51:59;;;;;;;17.40;7.97;;;;;;;3.29;68.59;100844.77;1689739;84;21466;-56
2021/01/05 09:54:27;;;;;;;13.98;7.97;;;;;;;3.30;68.63;100854.27;1690235;84;21159;-56
2021/01/05 09:56:56;;;;;;;14.23;7.92;;;;;;;3.27;68.62;100844.83;1698770;82;21578;-56
2021/01/05 09:59:26;;;;;;;14.23;7.37;;;;;;;3.26;68.66;100843.59;1694609;82;21670;-56
2021/01/05 10:01:55;;;;;;;14.68;8.15;;;;;;;3.25;68.59;100842.76;1700319;82;21429;-56
2021/01/05 10:04:26;;;;;;;15.88;8.48;;;;;;;3.21;68.72;100845.55;1701575;84;21492;-56
2021/01/05 10:06:53;;;;;;;13.30;7.45;;;;;;;3.18;68.76;100836.56;1706478;84;21187;-56
2021/01/05 10:09:21;;;;;;;17.90;9.15;;;;;;;3.11;68.78;100841.17;1691772;84;21259;-57
2021/01/05 10:11:48;;;;;;;13.30;8.70;;;;;;;3.10;69.02;100835.60;1690310;83;21160;-56
2021/01/05 10:14:19;;;;;;;14.95;7.70;;;;;;;3.19;68.83;100835.66;1694816;84;21272;-55
2021/01/05 10:16:55;;;;;;;15.83;7.35;;;;;;;3.27;68.69;100837.49;1690888;84;21121;-56
2021/01/05 10:19:23;;;;;;;19.10;9.65;;;;;;;3.29;68.75;100835.20;1678982;84;21765;-56
2021/01/05 10:21:51;;;;;;;16.23;8.65;;;;;;;3.30;68.84;100835.60;1687444;84;21272;-57
2021/01/05 10:24:19;;;;;;;20.15;9.45;;;;;;;3.31;68.90;100828.20;1679827;84;21197;-58
2021/01/05 10:26:54;;;;;;;16.30;9.68;;;;;;;3.30;68.93;100825.20;1688562;84;21148;-55
2021/01/05 10:29:23;;;;;;;18.48;10.03;;;;;;;3.29;68.99;100811.79;1686978;83;21606;-54
2021/01/05 10:31:51;;;;;;;16.95;9.75;;;;;;;3.28;69.08;100814.02;1688771;84;21216;-54
2021/01/05 10:34:21;;;;;;;17.90;9.35;;;;;;;3.24;69.14;100806.41;1689762;84;21758;-55
2021/01/05 10:36:54;;;;;;;17.00;9.38;;;;;;;3.22;69.27;100809.07;1684330;83;21231;-55
2021/01/05 10:39:23;;;;;;;16.77;9.28;;;;;;;3.22;69.27;100807.77;1685409;84;21189;-54
2021/01/05 10:41:50;;;;;;;16.35;9.58;;;;;;;3.30;69.04;100800.48;1685644;84;21176;-55
2021/01/05 10:44:19;;;;;;;15.72;9.40;;;;;;;3.39;68.94;100794.50;1683841;84;21180;-54
2021/01/05 10:46:47;;;;;;;16.10;9.98;;;;;;;3.47;68.94;100789.81;1683480;84;21789;-54
2021/01/05 10:49:15;;;;;;;20.95;11.03;;;;;;;3.49;68.84;100786.22;1685439;84;21219;-54
2021/01/05 10:51:49;;;;;;;21.62;13.15;;;;;;;3.44;68.82;100781.67;1687048;84;21448;-53
2021/01/05 10:54:18;;;;;;;24.15;13.43;;;;;;;3.42;68.99;100796.51;1686502;84;21262;-54
2021/01/05 10:56:46;;;;;;;21.97;12.43;;;;;;;3.39;69.12;100794.03;1684999;84;21216;-47
2021/01/05 10:59:15;;;;;;;21.25;14.30;;;;;;;3.35;69.15;100784.22;1727229;82;21383;-54
2021/01/05 11:01:42;;;;;;;20.85;12.50;;;;;;;3.33;69.23;100776.11;1724127;82;22012;-54
2021/01/05 11:04:10;;;;;;;22.10;14.45;;;;;;;3.30;69.29;100773.64;1728702;82;21545;-55
2021/01/05 11:06:37;;;;;;;21.07;12.33;;;;;;;3.26;69.36;100773.38;1732032;82;21172;-54
2021/01/05 11:09:05;;;;;;;24.95;11.38;;;;;;;3.28;69.31;100766.37;1728211;82;21238;-54
2021/01/05 11:11:33;;;;;;;18.62;11.88;;;;;;;3.37;69.15;100764.65;1714207;82;21372;-54
2021/01/05 11:14:00;;;;;;;22.22;12.65;;;;;;;3.46;68.96;100766.86;1680758;84;21215;-54
2021/01/05 11:16:28;;;;;;;18.48;11.30;;;;;;;3.53;68.81;100778.68;1676637;84;21139;-54
2021/01/05 11:18:56;;;;;;;24.50;14.80;;;;;;;3.54;68.79;100775.61;1718700;82;21157;-54
2021/01/05 11:21:23;;;;;;;26.15;13.15;;;;;;;3.54;68.66;100784.25;1732658;82;21181;-54
2021/01/05 11:23:50;;;;;;;23.95;13.90;;;;;;;3.49;68.68;100778.88;1723977;82;22250;-54
2021/01/05 11:26:18;;;;;;;21.68;14.38;;;;;;;3.46;68.81;100775.97;1722115;82;21504;-55
2021/01/05 11:28:47;;;;;;;22.65;12.73;;;;;;;3.46;68.84;100782.47;1722126;82;21176;-53
2021/01/05 11:31:15;;;;;;;23.83;14.00;;;;;;;3.45;68.73;100770.83;1724154;82;21237;-54
2021/01/05 11:33:42;;;;;;;25.30;15.25;;;;;;;3.42;68.64;100769.19;1721657;82;21535;-55
2021/01/05 11:36:10;;;;;;;22.32;14.53;;;;;;;3.36;68.61;100759.05;1725904;82;22112;-58
2021/01/05 11:38:38;;;;;;;28.32;15.90;;;;;;;3.35;68.62;100758.21;1733167;82;22670;-55
2021/01/05 11:41:07;;;;;;;29.15;16.23;;;;;;;3.41;68.42;100771.39;1695261;82;21171;-53
2021/01/05 11:43:35;;;;;;;26.37;13.78;;;;;;;3.44;68.34;100769.13;1660254;85;21596;-54
2021/01/05 11:46:02;;;;;;;25.02;14.07;;;;;;;3.43;68.30;100770.89;1690303;84;21188;-53
2021/01/05 11:48:30;;;;;;;26.23;14.18;;;;;;;3.40;68.28;100764.98;1677052;84;21445;-53
2021/01/05 11:50:58;;;;;;;22.62;12.85;;;;;;;3.37;68.22;100767.72;1668032;84;21141;-54
2021/01/05 11:53:25;;;;;;;22.82;14.47;;;;;;;3.32;68.20;100758.81;1679774;84;21169;-53
2021/01/05 11:55:53;;;;;;;26.10;15.05;;;;;;;3.30;68.20;100759.34;1687211;84;21168;-53
2021/01/05 11:58:20;;;;;;;24.23;14.55;;;;;;;3.26;68.08;100764.27;1678272;84;22735;-53
2021/01/05 12:00:48;;;;;;;21.02;13.22;;;;;;;3.16;68.31;100772.91;1720071;82;22264;-54
2021/01/05 12:03:15;;;;;;;31.87;15.60;;;;;;;3.10;68.38;100757.12;1720994;82;21161;-53
2021/01/05 12:05:43;;;;;;;28.65;14.03;;;;;;;3.05;68.51;100756.48;1718581;82;21164;-54
2021/01/05 12:08:11;;;;;;;25.37;15.08;;;;;;;3.06;68.46;100756.89;1717684;82;21784;-53
2021/01/05 12:10:38;;;;;;;24.02;13.72;;;;;;;3.13;68.36;100768.70;1715916;82;21204;-53
2021/01/05 12:13:07;;;;;;;24.90;14.00;;;;;;;3.18;68.31;100760.72;1716466;81;21407;-56
2021/01/05 12:15:34;;;;;;;23.57;13.75;;;;;;;3.20;68.25;100758.05;1736972;82;21659;-55
2021/01/05 12:18:02;;;;;;;23.62;14.60;;;;;;;3.19;68.44;100751.15;1719366;82;21196;-55
2021/01/05 12:20:29;;;;;;;24.37;14.25;;;;;;;3.18;68.47;100751.61;1726231;82;21219;-55
2021/01/05 12:22:57;;;;;;;23.12;13.65;;;;;;;3.19;68.53;100761.55;1725091;82;21155;-55
2021/01/05 12:25:24;;;;;;;23.27;15.28;;;;;;;3.16;68.59;100778.98;1727797;82;21407;-55
2021/01/05 12:27:51;;;;;;;21.30;13.88;;;;;;;3.14;68.61;100766.51;1728202;82;21228;-55
2021/01/05 12:30:22;;;;;;;24.92;12.78;;;;;;;3.11;68.63;100756.67;1722983;82;21199;-55
2021/01/05 12:32:51;;;;;;;22.48;14.63;;;;;;;3.08;68.81;100764.62;1741138;82;21181;-57
2021/01/05 12:35:21;;;;;;;26.02;12.15;;;;;;;3.06;68.85;100764.69;1724789;82;21196;-54
2021/01/05 12:37:50;;;;;;;20.30;11.55;;;;;;;3.09;68.59;100765.86;1730376;82;21654;-54
2021/01/05 12:40:17;;;;;;;16.50;10.30;;;;;;;3.15;68.23;100757.78;1722496;82;21183;-54
2021/01/05 12:42:46;;;;;;;20.15;10.90;;;;;;;3.23;67.88;100751.39;1728166;82;21565;-55